sensor_id;sensor_type;location;lat;lon;timestamp;temperature;humidity
3713;DHT22;1872;51.406;6.856;2022-12-07T00:00:41;5.60;99.90
3713;DHT22;1872;51.406;6.856;2022-12-07T00:03:07;5.60;99.90
3713;DHT22;1872;51.406;6.856;2022-12-07T00:05:33;5.70;99.90
3713;DHT22;1872;51.406;6.856;2022-12-07T00:07:58;5.70;99.90
3713;DHT22;1872;51.406;6.856;2022-12-07T00:10:24;5.70;99.90
3713;DHT22;1872;51.406;6.856;2022-12-07T00:12:49;5.70;99.90
3713;DHT22;1872;51.406;6.856;2022-12-07T00:15:15;5.70;99.90
3713;DHT22;1872;51.406;6.856;2022-12-07T00:17:41;5.70;99.90
3713;DHT22;1872;51.406;6.856;2022-12-07T00:20:07;5.70;99.90
3713;DHT22;1872;51.406;6.856;2022-12-07T00:22:32;5.70;99.90
3713;DHT22;1872;51.406;6.856;2022-12-07T00:24:58;5.70;99.90
3713;DHT22;1872;51.406;6.856;2022-12-07T00:27:24;5.70;99.90
3713;DHT22;1872;51.406;6.856;2022-12-07T00:29:49;5.70;99.90
3713;DHT22;1872;51.406;6.856;2022-12-07T00:32:15;5.70;99.90
3713;DHT22;1872;51.406;6.856;2022-12-07T00:34:40;5.70;99.90
3713;DHT22;1872;51.406;6.856;2022-12-07T00:37:06;5.70;99.90
3713;DHT22;1872;51.406;6.856;2022-12-07T00:39:31;5.70;99.90
3713;DHT22;1872;51.406;6.856;2022-12-07T00:41:57;5.80;99.90
3713;DHT22;1872;51.406;6.856;2022-12-07T00:44:23;5.70;99.90
3713;DHT22;1872;51.406;6.856;2022-12-07T00:46:48;5.70;99.90
3713;DHT22;1872;51.406;6.856;2022-12-07T00:49:14;5.70;99.90
3713;DHT22;1872;51.406;6.856;2022-12-07T00:51:39;5.70;99.90
3713;DHT22;1872;51.406;6.856;2022-12-07T00:54:05;5.70;99.90
3713;DHT22;1872;51.406;6.856;2022-12-07T00:56:31;5.70;99.90
3713;DHT22;1872;51.406;6.856;2022-12-07T00:59:01;5.70;99.90
3713;DHT22;1872;51.406;6.856;2022-12-07T01:01:30;5.70;99.90
3713;DHT22;1872;51.406;6.856;2022-12-07T01:03:56;5.70;99.90
3713;DHT22;1872;51.406;6.856;2022-12-07T01:06:23;5.70;99.90
3713;DHT22;1872;51.406;6.856;2022-12-07T01:08:49;5.80;99.90
3713;DHT22;1872;51.406;6.856;2022-12-07T01:11:18;5.70;99.90
3713;DHT22;1872;51.406;6.856;2022-12-07T01:13:45;5.70;99.90
3713;DHT22;1872;51.406;6.856;2022-12-07T01:16:13;5.70;99.90
3713;DHT22;1872;51.406;6.856;2022-12-07T01:18:39;5.70;99.90
3713;DHT22;1872;51.406;6.856;2022-12-07T01:23:32;5.70;99.90
3713;DHT22;1872;51.406;6.856;2022-12-07T01:26:00;5.70;99.90
3713;DHT22;1872;51.406;6.856;2022-12-07T01:28:26;5.80;99.90
3713;DHT22;1872;51.406;6.856;2022-12-07T01:31:03;5.80;99.90
3713;DHT22;1872;51.406;6.856;2022-12-07T01:33:31;5.70;99.90
3713;DHT22;1872;51.406;6.856;2022-12-07T01:36:24;5.80;99.90
3713;DHT22;1872;51.406;6.856;2022-12-07T01:38:53;5.70;99.90
3713;DHT22;1872;51.406;6.856;2022-12-07T01:41:22;5.70;99.90
3713;DHT22;1872;51.406;6.856;2022-12-07T01:46:38;5.80;99.90
3713;DHT22;1872;51.406;6.856;2022-12-07T01:49:06;5.70;99.90
3713;DHT22;1872;51.406;6.856;2022-12-07T01:51:32;5.70;99.90
3713;DHT22;1872;51.406;6.856;2022-12-07T01:53:58;5.70;99.90
3713;DHT22;1872;51.406;6.856;2022-12-07T01:56:27;5.80;99.90
3713;DHT22;1872;51.406;6.856;2022-12-07T01:58:55;5.70;99.90
3713;DHT22;1872;51.406;6.856;2022-12-07T02:01:21;5.80;99.90
3713;DHT22;1872;51.406;6.856;2022-12-07T02:03:48;5.70;99.90
3713;DHT22;1872;51.406;6.856;2022-12-07T02:06:17;5.70;99.90
3713;DHT22;1872;51.406;6.856;2022-12-07T02:08:44;5.70;99.90
3713;DHT22;1872;51.406;6.856;2022-12-07T02:11:10;5.70;99.90
3713;DHT22;1872;51.406;6.856;2022-12-07T02:13:39;5.70;99.90
3713;DHT22;1872;51.406;6.856;2022-12-07T02:30:15;5.60;99.90
3713;DHT22;1872;51.406;6.856;2022-12-07T02:33:00;5.60;99.90
3713;DHT22;1872;51.406;6.856;2022-12-07T02:38:29;5.50;99.90
3713;DHT22;1872;51.406;6.856;2022-12-07T02:41:07;5.50;99.90
3713;DHT22;1872;51.406;6.856;2022-12-07T02:43:42;5.50;99.90
3713;DHT22;1872;51.406;6.856;2022-12-07T02:46:13;5.50;99.90
3713;DHT22;1872;51.406;6.856;2022-12-07T02:48:41;5.50;99.90
3713;DHT22;1872;51.406;6.856;2022-12-07T02:51:08;5.50;99.90
3713;DHT22;1872;51.406;6.856;2022-12-07T02:53:39;5.50;99.90
3713;DHT22;1872;51.406;6.856;2022-12-07T02:56:27;5.50;99.90
3713;DHT22;1872;51.406;6.856;2022-12-07T03:07:39;5.40;99.90
3713;DHT22;1872;51.406;6.856;2022-12-07T03:13:23;5.30;99.90
3713;DHT22;1872;51.406;6.856;2022-12-07T03:18:41;5.30;99.90
3713;DHT22;1872;51.406;6.856;2022-12-07T03:21:11;5.30;99.90
3713;DHT22;1872;51.406;6.856;2022-12-07T03:23:40;5.20;99.90
3713;DHT22;1872;51.406;6.856;2022-12-07T03:26:10;5.20;99.90
3713;DHT22;1872;51.406;6.856;2022-12-07T03:28:51;5.20;99.90
3713;DHT22;1872;51.406;6.856;2022-12-07T03:31:26;5.20;99.90
3713;DHT22;1872;51.406;6.856;2022-12-07T03:34:34;5.20;99.90
3713;DHT22;1872;51.406;6.856;2022-12-07T03:37:05;5.10;99.90
3713;DHT22;1872;51.406;6.856;2022-12-07T03:40:19;5.10;99.90
3713;DHT22;1872;51.406;6.856;2022-12-07T03:42:23;5.10;99.90
3713;DHT22;1872;51.406;6.856;2022-12-07T03:44:49;5.00;99.90
3713;DHT22;1872;51.406;6.856;2022-12-07T03:47:25;5.00;99.90
3713;DHT22;1872;51.406;6.856;2022-12-07T03:49:58;5.00;99.90
3713;DHT22;1872;51.406;6.856;2022-12-07T03:52:26;4.90;99.90
3713;DHT22;1872;51.406;6.856;2022-12-07T03:55:16;4.90;99.90
3713;DHT22;1872;51.406;6.856;2022-12-07T03:57:45;4.90;99.90
3713;DHT22;1872;51.406;6.856;2022-12-07T04:00:13;4.90;99.90
3713;DHT22;1872;51.406;6.856;2022-12-07T04:02:40;4.90;99.90
3713;DHT22;1872;51.406;6.856;2022-12-07T04:05:07;4.90;99.90
3713;DHT22;1872;51.406;6.856;2022-12-07T04:07:33;5.00;99.90
3713;DHT22;1872;51.406;6.856;2022-12-07T04:09:59;5.00;99.90
3713;DHT22;1872;51.406;6.856;2022-12-07T04:12:24;5.00;99.90
3713;DHT22;1872;51.406;6.856;2022-12-07T04:14:50;5.00;99.90
3713;DHT22;1872;51.406;6.856;2022-12-07T04:17:16;5.00;99.90
3713;DHT22;1872;51.406;6.856;2022-12-07T04:19:42;5.00;99.90
3713;DHT22;1872;51.406;6.856;2022-12-07T04:22:07;5.00;99.90
3713;DHT22;1872;51.406;6.856;2022-12-07T04:24:34;5.10;99.90
3713;DHT22;1872;51.406;6.856;2022-12-07T04:26:59;5.00;99.90
3713;DHT22;1872;51.406;6.856;2022-12-07T04:29:26;5.10;99.90
3713;DHT22;1872;51.406;6.856;2022-12-07T04:31:52;5.10;99.90
3713;DHT22;1872;51.406;6.856;2022-12-07T04:34:19;5.00;99.90
3713;DHT22;1872;51.406;6.856;2022-12-07T04:36:45;5.00;99.90
3713;DHT22;1872;51.406;6.856;2022-12-07T04:39:23;4.90;99.90
3713;DHT22;1872;51.406;6.856;2022-12-07T04:41:49;4.90;99.90
3713;DHT22;1872;51.406;6.856;2022-12-07T04:44:16;4.90;99.90
3713;DHT22;1872;51.406;6.856;2022-12-07T04:46:42;4.80;99.90
3713;DHT22;1872;51.406;6.856;2022-12-07T04:49:09;4.80;99.90
3713;DHT22;1872;51.406;6.856;2022-12-07T04:51:35;4.80;99.90
3713;DHT22;1872;51.406;6.856;2022-12-07T04:54:00;4.70;99.90
3713;DHT22;1872;51.406;6.856;2022-12-07T04:56:26;4.70;99.90
3713;DHT22;1872;51.406;6.856;2022-12-07T04:58:53;4.70;99.90
3713;DHT22;1872;51.406;6.856;2022-12-07T05:01:19;4.60;99.90
3713;DHT22;1872;51.406;6.856;2022-12-07T05:03:45;4.60;99.90
3713;DHT22;1872;51.406;6.856;2022-12-07T05:06:11;4.60;99.90
3713;DHT22;1872;51.406;6.856;2022-12-07T05:08:37;4.60;99.90
3713;DHT22;1872;51.406;6.856;2022-12-07T05:11:04;4.70;99.90
3713;DHT22;1872;51.406;6.856;2022-12-07T05:13:31;4.70;99.90
3713;DHT22;1872;51.406;6.856;2022-12-07T05:15:57;4.70;99.90
3713;DHT22;1872;51.406;6.856;2022-12-07T05:18:23;4.70;99.90
3713;DHT22;1872;51.406;6.856;2022-12-07T05:20:48;4.70;99.90
3713;DHT22;1872;51.406;6.856;2022-12-07T05:23:14;4.70;99.90
3713;DHT22;1872;51.406;6.856;2022-12-07T05:25:40;4.80;99.90
3713;DHT22;1872;51.406;6.856;2022-12-07T05:28:05;4.80;99.90
3713;DHT22;1872;51.406;6.856;2022-12-07T05:30:32;4.80;99.90
3713;DHT22;1872;51.406;6.856;2022-12-07T05:32:57;4.80;99.90
3713;DHT22;1872;51.406;6.856;2022-12-07T05:35:23;4.80;99.90
3713;DHT22;1872;51.406;6.856;2022-12-07T05:37:49;4.80;99.90
3713;DHT22;1872;51.406;6.856;2022-12-07T05:40:15;4.80;99.90
3713;DHT22;1872;51.406;6.856;2022-12-07T05:42:42;4.80;99.90
3713;DHT22;1872;51.406;6.856;2022-12-07T05:45:09;4.80;99.90
3713;DHT22;1872;51.406;6.856;2022-12-07T05:47:36;4.80;99.90
3713;DHT22;1872;51.406;6.856;2022-12-07T05:50:02;4.80;99.90
3713;DHT22;1872;51.406;6.856;2022-12-07T05:52:28;4.80;99.90
3713;DHT22;1872;51.406;6.856;2022-12-07T05:54:54;4.80;99.90
3713;DHT22;1872;51.406;6.856;2022-12-07T05:57:19;4.80;99.90
3713;DHT22;1872;51.406;6.856;2022-12-07T05:59:45;4.80;99.90
3713;DHT22;1872;51.406;6.856;2022-12-07T06:02:13;4.80;99.90
3713;DHT22;1872;51.406;6.856;2022-12-07T06:04:44;4.80;99.90
3713;DHT22;1872;51.406;6.856;2022-12-07T06:07:11;4.90;99.90
3713;DHT22;1872;51.406;6.856;2022-12-07T06:09:37;4.90;99.90
3713;DHT22;1872;51.406;6.856;2022-12-07T06:12:05;4.90;99.90
3713;DHT22;1872;51.406;6.856;2022-12-07T06:14:50;4.90;99.90
3713;DHT22;1872;51.406;6.856;2022-12-07T06:17:16;4.90;99.90
3713;DHT22;1872;51.406;6.856;2022-12-07T06:19:42;4.90;99.90
3713;DHT22;1872;51.406;6.856;2022-12-07T06:22:08;4.90;99.90
3713;DHT22;1872;51.406;6.856;2022-12-07T06:24:35;4.90;99.90
3713;DHT22;1872;51.406;6.856;2022-12-07T06:27:01;4.80;99.90
3713;DHT22;1872;51.406;6.856;2022-12-07T06:29:26;4.80;99.90
3713;DHT22;1872;51.406;6.856;2022-12-07T06:31:52;4.80;99.90
3713;DHT22;1872;51.406;6.856;2022-12-07T06:34:20;4.80;99.90
3713;DHT22;1872;51.406;6.856;2022-12-07T06:36:49;4.80;99.90
3713;DHT22;1872;51.406;6.856;2022-12-07T06:39:18;4.80;99.90
3713;DHT22;1872;51.406;6.856;2022-12-07T06:41:43;4.80;99.90
3713;DHT22;1872;51.406;6.856;2022-12-07T06:44:09;4.80;99.90
3713;DHT22;1872;51.406;6.856;2022-12-07T06:46:35;4.80;99.90
3713;DHT22;1872;51.406;6.856;2022-12-07T06:49:01;4.80;99.90
3713;DHT22;1872;51.406;6.856;2022-12-07T06:51:27;4.80;99.90
3713;DHT22;1872;51.406;6.856;2022-12-07T06:53:52;4.80;99.90
3713;DHT22;1872;51.406;6.856;2022-12-07T06:56:18;4.80;99.90
3713;DHT22;1872;51.406;6.856;2022-12-07T06:58:44;4.80;99.90
3713;DHT22;1872;51.406;6.856;2022-12-07T07:01:14;4.80;99.90
3713;DHT22;1872;51.406;6.856;2022-12-07T07:03:40;4.80;99.90
3713;DHT22;1872;51.406;6.856;2022-12-07T07:06:06;4.90;99.90
3713;DHT22;1872;51.406;6.856;2022-12-07T07:08:36;4.90;99.90
3713;DHT22;1872;51.406;6.856;2022-12-07T07:11:02;4.90;99.90
3713;DHT22;1872;51.406;6.856;2022-12-07T07:13:28;4.90;99.90
3713;DHT22;1872;51.406;6.856;2022-12-07T07:15:54;4.80;99.90
3713;DHT22;1872;51.406;6.856;2022-12-07T07:18:20;4.80;99.90
3713;DHT22;1872;51.406;6.856;2022-12-07T07:20:46;4.80;99.90
3713;DHT22;1872;51.406;6.856;2022-12-07T07:23:12;4.70;99.90
3713;DHT22;1872;51.406;6.856;2022-12-07T07:25:38;4.70;99.90
3713;DHT22;1872;51.406;6.856;2022-12-07T07:28:04;4.70;99.90
3713;DHT22;1872;51.406;6.856;2022-12-07T07:30:30;4.70;99.90
3713;DHT22;1872;51.406;6.856;2022-12-07T07:33:01;4.60;99.90
3713;DHT22;1872;51.406;6.856;2022-12-07T07:35:28;4.50;99.90
3713;DHT22;1872;51.406;6.856;2022-12-07T07:37:55;4.50;99.90
3713;DHT22;1872;51.406;6.856;2022-12-07T07:40:20;4.40;99.90
3713;DHT22;1872;51.406;6.856;2022-12-07T07:42:47;4.40;99.90
3713;DHT22;1872;51.406;6.856;2022-12-07T07:45:15;4.30;99.90
3713;DHT22;1872;51.406;6.856;2022-12-07T07:47:40;4.30;99.90
3713;DHT22;1872;51.406;6.856;2022-12-07T07:50:06;4.40;99.90
3713;DHT22;1872;51.406;6.856;2022-12-07T07:52:32;4.40;99.90
3713;DHT22;1872;51.406;6.856;2022-12-07T07:54:58;4.40;99.90
3713;DHT22;1872;51.406;6.856;2022-12-07T07:57:23;4.50;99.90
3713;DHT22;1872;51.406;6.856;2022-12-07T07:59:49;4.50;99.90
3713;DHT22;1872;51.406;6.856;2022-12-07T08:02:17;4.50;99.90
3713;DHT22;1872;51.406;6.856;2022-12-07T08:04:44;4.50;99.90
3713;DHT22;1872;51.406;6.856;2022-12-07T08:07:10;4.60;99.90
3713;DHT22;1872;51.406;6.856;2022-12-07T08:09:36;4.60;99.90
3713;DHT22;1872;51.406;6.856;2022-12-07T08:12:02;4.60;99.90
3713;DHT22;1872;51.406;6.856;2022-12-07T08:14:28;4.60;99.90
3713;DHT22;1872;51.406;6.856;2022-12-07T08:16:54;4.60;99.90
3713;DHT22;1872;51.406;6.856;2022-12-07T08:19:19;4.60;99.90
3713;DHT22;1872;51.406;6.856;2022-12-07T08:21:45;4.70;99.90
3713;DHT22;1872;51.406;6.856;2022-12-07T08:24:11;4.70;99.90
3713;DHT22;1872;51.406;6.856;2022-12-07T08:26:38;4.70;99.90
3713;DHT22;1872;51.406;6.856;2022-12-07T08:29:03;4.70;99.90
3713;DHT22;1872;51.406;6.856;2022-12-07T08:31:29;4.70;99.90
3713;DHT22;1872;51.406;6.856;2022-12-07T08:33:55;4.70;99.90
3713;DHT22;1872;51.406;6.856;2022-12-07T08:36:21;4.70;99.90
3713;DHT22;1872;51.406;6.856;2022-12-07T08:38:49;4.60;99.90
3713;DHT22;1872;51.406;6.856;2022-12-07T08:41:15;4.60;99.90
3713;DHT22;1872;51.406;6.856;2022-12-07T08:43:41;4.50;99.90
3713;DHT22;1872;51.406;6.856;2022-12-07T08:46:12;4.50;99.90
3713;DHT22;1872;51.406;6.856;2022-12-07T08:48:52;4.50;99.90
3713;DHT22;1872;51.406;6.856;2022-12-07T08:51:20;4.40;99.90
3713;DHT22;1872;51.406;6.856;2022-12-07T08:53:47;4.40;99.90
3713;DHT22;1872;51.406;6.856;2022-12-07T08:56:13;4.40;99.90
3713;DHT22;1872;51.406;6.856;2022-12-07T08:58:40;4.50;99.90
3713;DHT22;1872;51.406;6.856;2022-12-07T09:01:07;4.50;99.90
3713;DHT22;1872;51.406;6.856;2022-12-07T09:03:32;4.60;99.90
3713;DHT22;1872;51.406;6.856;2022-12-07T09:05:58;4.70;99.90
3713;DHT22;1872;51.406;6.856;2022-12-07T09:08:31;4.70;99.90
3713;DHT22;1872;51.406;6.856;2022-12-07T09:10:58;4.80;99.90
3713;DHT22;1872;51.406;6.856;2022-12-07T09:13:24;4.80;99.90
3713;DHT22;1872;51.406;6.856;2022-12-07T09:15:49;4.90;99.90
3713;DHT22;1872;51.406;6.856;2022-12-07T09:18:15;4.90;99.90
3713;DHT22;1872;51.406;6.856;2022-12-07T09:20:40;4.80;99.90
3713;DHT22;1872;51.406;6.856;2022-12-07T09:23:06;4.80;99.90
3713;DHT22;1872;51.406;6.856;2022-12-07T09:25:33;4.90;99.90
3713;DHT22;1872;51.406;6.856;2022-12-07T09:27:59;5.00;99.90
3713;DHT22;1872;51.406;6.856;2022-12-07T09:30:26;5.10;99.90
3713;DHT22;1872;51.406;6.856;2022-12-07T09:32:58;5.10;99.90
3713;DHT22;1872;51.406;6.856;2022-12-07T09:35:24;5.20;99.90
3713;DHT22;1872;51.406;6.856;2022-12-07T09:37:50;5.30;99.90
3713;DHT22;1872;51.406;6.856;2022-12-07T09:40:18;5.40;99.90
3713;DHT22;1872;51.406;6.856;2022-12-07T09:42:48;5.40;99.90
3713;DHT22;1872;51.406;6.856;2022-12-07T09:45:19;5.50;99.90
3713;DHT22;1872;51.406;6.856;2022-12-07T09:47:45;5.50;99.90
3713;DHT22;1872;51.406;6.856;2022-12-07T09:50:18;5.60;99.90
3713;DHT22;1872;51.406;6.856;2022-12-07T09:52:45;5.70;99.90
3713;DHT22;1872;51.406;6.856;2022-12-07T09:55:15;5.70;99.90
3713;DHT22;1872;51.406;6.856;2022-12-07T09:57:42;5.70;99.90
3713;DHT22;1872;51.406;6.856;2022-12-07T10:00:26;5.70;99.90
3713;DHT22;1872;51.406;6.856;2022-12-07T10:02:56;5.80;99.90
3713;DHT22;1872;51.406;6.856;2022-12-07T10:05:38;5.80;99.90
3713;DHT22;1872;51.406;6.856;2022-12-07T10:08:07;5.90;99.90
3713;DHT22;1872;51.406;6.856;2022-12-07T10:10:35;5.80;99.90
3713;DHT22;1872;51.406;6.856;2022-12-07T10:13:07;5.80;99.90
3713;DHT22;1872;51.406;6.856;2022-12-07T10:15:43;5.80;99.90
3713;DHT22;1872;51.406;6.856;2022-12-07T10:18:41;5.80;99.90
3713;DHT22;1872;51.406;6.856;2022-12-07T10:21:20;5.80;99.90
3713;DHT22;1872;51.406;6.856;2022-12-07T10:26:31;5.90;99.90
3713;DHT22;1872;51.406;6.856;2022-12-07T10:31:54;6.10;99.90
3713;DHT22;1872;51.406;6.856;2022-12-07T10:34:27;6.30;99.90
3713;DHT22;1872;51.406;6.856;2022-12-07T10:37:25;6.40;99.90
3713;DHT22;1872;51.406;6.856;2022-12-07T10:39:56;6.50;99.90
3713;DHT22;1872;51.406;6.856;2022-12-07T10:42:30;6.50;99.90
3713;DHT22;1872;51.406;6.856;2022-12-07T10:47:48;6.60;99.90
3713;DHT22;1872;51.406;6.856;2022-12-07T10:53:32;6.70;99.90
3713;DHT22;1872;51.406;6.856;2022-12-07T11:06:57;6.60;99.90
3713;DHT22;1872;51.406;6.856;2022-12-07T11:12:04;6.70;99.90
3713;DHT22;1872;51.406;6.856;2022-12-07T11:24:05;6.80;99.90
3713;DHT22;1872;51.406;6.856;2022-12-07T11:37:39;6.90;99.90
3713;DHT22;1872;51.406;6.856;2022-12-07T11:40:28;7.00;99.90
3713;DHT22;1872;51.406;6.856;2022-12-07T11:45:29;6.90;99.90
3713;DHT22;1872;51.406;6.856;2022-12-07T11:50:45;6.90;99.90
3713;DHT22;1872;51.406;6.856;2022-12-07T11:53:29;6.90;99.90
3713;DHT22;1872;51.406;6.856;2022-12-07T11:56:03;6.90;99.90
3713;DHT22;1872;51.406;6.856;2022-12-07T11:58:54;6.90;99.90
3713;DHT22;1872;51.406;6.856;2022-12-07T12:06:41;7.00;99.90
3713;DHT22;1872;51.406;6.856;2022-12-07T12:14:37;7.00;99.90
3713;DHT22;1872;51.406;6.856;2022-12-07T12:17:49;7.00;99.90
3713;DHT22;1872;51.406;6.856;2022-12-07T12:22:44;7.00;99.90
3713;DHT22;1872;51.406;6.856;2022-12-07T12:27:54;7.10;99.90
3713;DHT22;1872;51.406;6.856;2022-12-07T12:30:38;7.10;99.90
3713;DHT22;1872;51.406;6.856;2022-12-07T12:33:26;7.10;99.90
3713;DHT22;1872;51.406;6.856;2022-12-07T12:46:51;7.10;99.90
3713;DHT22;1872;51.406;6.856;2022-12-07T12:51:57;7.10;99.90
3713;DHT22;1872;51.406;6.856;2022-12-07T12:54:31;7.10;99.90
3713;DHT22;1872;51.406;6.856;2022-12-07T12:57:27;7.10;99.90
3713;DHT22;1872;51.406;6.856;2022-12-07T13:02:37;7.10;99.90
3713;DHT22;1872;51.406;6.856;2022-12-07T13:10:34;7.00;99.90
3713;DHT22;1872;51.406;6.856;2022-12-07T13:15:49;7.00;99.90
3713;DHT22;1872;51.406;6.856;2022-12-07T13:28:41;6.90;99.90
3713;DHT22;1872;51.406;6.856;2022-12-07T13:31:53;6.90;99.90
3713;DHT22;1872;51.406;6.856;2022-12-07T13:33:59;7.00;99.90
3713;DHT22;1872;51.406;6.856;2022-12-07T13:36:46;7.00;99.90
3713;DHT22;1872;51.406;6.856;2022-12-07T13:39:18;7.00;99.90
3713;DHT22;1872;51.406;6.856;2022-12-07T13:41:49;7.00;99.90
3713;DHT22;1872;51.406;6.856;2022-12-07T13:44:18;6.90;99.90
3713;DHT22;1872;51.406;6.856;2022-12-07T13:47:06;6.90;99.90
3713;DHT22;1872;51.406;6.856;2022-12-07T13:49:50;6.90;99.90
3713;DHT22;1872;51.406;6.856;2022-12-07T13:52:26;6.80;99.90
3713;DHT22;1872;51.406;6.856;2022-12-07T13:55:00;6.80;99.90
3713;DHT22;1872;51.406;6.856;2022-12-07T13:57:28;6.70;99.90
3713;DHT22;1872;51.406;6.856;2022-12-07T13:59:57;6.60;99.90
3713;DHT22;1872;51.406;6.856;2022-12-07T14:02:29;6.50;99.90
3713;DHT22;1872;51.406;6.856;2022-12-07T14:05:16;6.50;99.90
3713;DHT22;1872;51.406;6.856;2022-12-07T14:10:27;6.30;99.90
3713;DHT22;1872;51.406;6.856;2022-12-07T14:12:53;6.30;99.90
3713;DHT22;1872;51.406;6.856;2022-12-07T14:15:22;6.30;99.90
3713;DHT22;1872;51.406;6.856;2022-12-07T14:17:53;6.30;99.90
3713;DHT22;1872;51.406;6.856;2022-12-07T14:20:39;6.20;99.90
3713;DHT22;1872;51.406;6.856;2022-12-07T14:23:24;6.20;99.90
3713;DHT22;1872;51.406;6.856;2022-12-07T14:25:52;6.10;99.90
3713;DHT22;1872;51.406;6.856;2022-12-07T14:28:31;6.10;99.90
3713;DHT22;1872;51.406;6.856;2022-12-07T14:30:57;6.10;99.90
3713;DHT22;1872;51.406;6.856;2022-12-07T14:33:24;6.10;99.90
3713;DHT22;1872;51.406;6.856;2022-12-07T14:35:49;6.00;99.90
3713;DHT22;1872;51.406;6.856;2022-12-07T14:38:15;6.00;99.90
3713;DHT22;1872;51.406;6.856;2022-12-07T14:40:43;5.90;99.90
3713;DHT22;1872;51.406;6.856;2022-12-07T14:43:12;5.80;99.90
3713;DHT22;1872;51.406;6.856;2022-12-07T14:45:38;5.80;99.90
3713;DHT22;1872;51.406;6.856;2022-12-07T14:48:05;5.70;99.90
3713;DHT22;1872;51.406;6.856;2022-12-07T14:50:38;5.70;99.90
3713;DHT22;1872;51.406;6.856;2022-12-07T14:53:29;5.70;99.90
3713;DHT22;1872;51.406;6.856;2022-12-07T14:55:56;5.60;99.90
3713;DHT22;1872;51.406;6.856;2022-12-07T14:58:21;5.60;99.90
3713;DHT22;1872;51.406;6.856;2022-12-07T15:00:47;5.50;99.90
3713;DHT22;1872;51.406;6.856;2022-12-07T15:03:13;5.40;99.90
3713;DHT22;1872;51.406;6.856;2022-12-07T15:05:40;5.40;99.90
3713;DHT22;1872;51.406;6.856;2022-12-07T15:08:08;5.30;99.90
3713;DHT22;1872;51.406;6.856;2022-12-07T15:10:34;5.30;99.90
3713;DHT22;1872;51.406;6.856;2022-12-07T15:13:04;5.20;99.90
3713;DHT22;1872;51.406;6.856;2022-12-07T15:15:53;5.20;99.90
3713;DHT22;1872;51.406;6.856;2022-12-07T15:18:19;5.10;99.90
3713;DHT22;1872;51.406;6.856;2022-12-07T15:20:45;5.00;99.90
3713;DHT22;1872;51.406;6.856;2022-12-07T15:23:11;5.00;99.90
3713;DHT22;1872;51.406;6.856;2022-12-07T15:25:41;4.90;99.90
3713;DHT22;1872;51.406;6.856;2022-12-07T15:28:07;4.90;99.90
3713;DHT22;1872;51.406;6.856;2022-12-07T15:30:32;4.80;99.90
3713;DHT22;1872;51.406;6.856;2022-12-07T15:32:58;4.80;99.90
3713;DHT22;1872;51.406;6.856;2022-12-07T15:35:24;4.80;99.90
3713;DHT22;1872;51.406;6.856;2022-12-07T15:37:49;4.80;99.90
3713;DHT22;1872;51.406;6.856;2022-12-07T15:40:15;4.80;99.90
3713;DHT22;1872;51.406;6.856;2022-12-07T15:42:41;4.70;99.90
3713;DHT22;1872;51.406;6.856;2022-12-07T15:45:08;4.70;99.90
3713;DHT22;1872;51.406;6.856;2022-12-07T15:47:39;4.70;99.90
3713;DHT22;1872;51.406;6.856;2022-12-07T15:50:07;4.70;99.90
3713;DHT22;1872;51.406;6.856;2022-12-07T15:52:33;4.70;99.90
3713;DHT22;1872;51.406;6.856;2022-12-07T15:55:01;4.70;99.90
3713;DHT22;1872;51.406;6.856;2022-12-07T15:57:32;4.70;99.90
3713;DHT22;1872;51.406;6.856;2022-12-07T15:59:58;4.70;99.90
3713;DHT22;1872;51.406;6.856;2022-12-07T16:02:25;4.80;99.90
3713;DHT22;1872;51.406;6.856;2022-12-07T16:04:51;4.80;99.90
3713;DHT22;1872;51.406;6.856;2022-12-07T16:07:17;4.90;99.90
3713;DHT22;1872;51.406;6.856;2022-12-07T16:09:44;4.90;99.90
3713;DHT22;1872;51.406;6.856;2022-12-07T16:12:10;4.90;99.90
3713;DHT22;1872;51.406;6.856;2022-12-07T16:14:36;5.00;99.90
3713;DHT22;1872;51.406;6.856;2022-12-07T16:17:02;5.00;99.90
3713;DHT22;1872;51.406;6.856;2022-12-07T16:19:30;5.10;99.90
3713;DHT22;1872;51.406;6.856;2022-12-07T16:21:56;5.10;99.90
3713;DHT22;1872;51.406;6.856;2022-12-07T16:24:22;5.20;99.90
3713;DHT22;1872;51.406;6.856;2022-12-07T16:26:48;5.20;99.90
3713;DHT22;1872;51.406;6.856;2022-12-07T16:29:15;5.20;99.90
3713;DHT22;1872;51.406;6.856;2022-12-07T16:31:41;5.30;99.90
3713;DHT22;1872;51.406;6.856;2022-12-07T16:34:07;5.30;99.90
3713;DHT22;1872;51.406;6.856;2022-12-07T16:36:33;5.30;99.90
3713;DHT22;1872;51.406;6.856;2022-12-07T16:38:59;5.30;99.90
3713;DHT22;1872;51.406;6.856;2022-12-07T16:41:25;5.30;99.90
3713;DHT22;1872;51.406;6.856;2022-12-07T16:43:51;5.40;99.90
3713;DHT22;1872;51.406;6.856;2022-12-07T16:46:16;5.40;99.90
3713;DHT22;1872;51.406;6.856;2022-12-07T16:48:43;5.40;99.90
3713;DHT22;1872;51.406;6.856;2022-12-07T16:51:11;5.40;99.90
3713;DHT22;1872;51.406;6.856;2022-12-07T16:53:38;5.40;99.90
3713;DHT22;1872;51.406;6.856;2022-12-07T16:56:04;5.40;99.90
3713;DHT22;1872;51.406;6.856;2022-12-07T16:58:34;5.40;99.90
3713;DHT22;1872;51.406;6.856;2022-12-07T17:01:29;5.40;99.90
3713;DHT22;1872;51.406;6.856;2022-12-07T17:03:56;5.40;99.90
3713;DHT22;1872;51.406;6.856;2022-12-07T17:06:23;5.40;99.90
3713;DHT22;1872;51.406;6.856;2022-12-07T17:08:50;5.40;99.90
3713;DHT22;1872;51.406;6.856;2022-12-07T17:11:19;5.40;99.90
3713;DHT22;1872;51.406;6.856;2022-12-07T17:13:44;5.40;99.90
3713;DHT22;1872;51.406;6.856;2022-12-07T17:16:29;5.40;99.90
3713;DHT22;1872;51.406;6.856;2022-12-07T17:18:55;5.30;99.90
3713;DHT22;1872;51.406;6.856;2022-12-07T17:21:21;5.40;99.90
3713;DHT22;1872;51.406;6.856;2022-12-07T17:23:48;5.40;99.90
3713;DHT22;1872;51.406;6.856;2022-12-07T17:26:19;5.40;99.90
3713;DHT22;1872;51.406;6.856;2022-12-07T17:28:45;5.40;99.90
3713;DHT22;1872;51.406;6.856;2022-12-07T17:31:12;5.40;99.90
3713;DHT22;1872;51.406;6.856;2022-12-07T17:33:38;5.40;99.90
3713;DHT22;1872;51.406;6.856;2022-12-07T17:36:12;5.50;99.90
3713;DHT22;1872;51.406;6.856;2022-12-07T17:38:38;5.40;99.90
3713;DHT22;1872;51.406;6.856;2022-12-07T17:41:12;5.40;99.90
3713;DHT22;1872;51.406;6.856;2022-12-07T17:43:58;5.50;99.90
3713;DHT22;1872;51.406;6.856;2022-12-07T17:46:24;5.40;99.90
3713;DHT22;1872;51.406;6.856;2022-12-07T17:48:52;5.50;99.90
3713;DHT22;1872;51.406;6.856;2022-12-07T17:51:18;5.40;99.90
3713;DHT22;1872;51.406;6.856;2022-12-07T17:54:02;5.50;99.90
3713;DHT22;1872;51.406;6.856;2022-12-07T17:56:28;5.50;99.90
3713;DHT22;1872;51.406;6.856;2022-12-07T17:58:54;5.50;99.90
3713;DHT22;1872;51.406;6.856;2022-12-07T18:01:19;5.50;99.90
3713;DHT22;1872;51.406;6.856;2022-12-07T18:03:45;5.50;99.90
3713;DHT22;1872;51.406;6.856;2022-12-07T18:06:10;5.50;99.90
3713;DHT22;1872;51.406;6.856;2022-12-07T18:08:36;5.50;99.90
3713;DHT22;1872;51.406;6.856;2022-12-07T18:11:04;5.50;99.90
3713;DHT22;1872;51.406;6.856;2022-12-07T18:13:30;5.40;99.90
3713;DHT22;1872;51.406;6.856;2022-12-07T18:16:12;5.40;99.90
3713;DHT22;1872;51.406;6.856;2022-12-07T18:18:39;5.40;99.90
3713;DHT22;1872;51.406;6.856;2022-12-07T18:21:08;5.40;99.90
3713;DHT22;1872;51.406;6.856;2022-12-07T18:23:38;5.40;99.90
3713;DHT22;1872;51.406;6.856;2022-12-07T18:26:04;5.40;99.90
3713;DHT22;1872;51.406;6.856;2022-12-07T18:28:30;5.40;99.90
3713;DHT22;1872;51.406;6.856;2022-12-07T18:30:55;5.40;99.90
3713;DHT22;1872;51.406;6.856;2022-12-07T18:33:21;5.40;99.90
3713;DHT22;1872;51.406;6.856;2022-12-07T18:35:47;5.40;99.90
3713;DHT22;1872;51.406;6.856;2022-12-07T18:38:13;5.40;99.90
3713;DHT22;1872;51.406;6.856;2022-12-07T18:40:41;5.40;99.90
3713;DHT22;1872;51.406;6.856;2022-12-07T18:43:07;5.40;99.90
3713;DHT22;1872;51.406;6.856;2022-12-07T18:45:38;5.30;99.90
3713;DHT22;1872;51.406;6.856;2022-12-07T18:48:03;5.30;99.90
3713;DHT22;1872;51.406;6.856;2022-12-07T18:50:29;5.30;99.90